Tiempo atmosférico en la estación meteorológica de Quinto, Zaragoza (205 m.)



Fecha
DESCASC
Temp. máxima en grados centígrados (hora)
DESCASC
Temp. mínima en grados centígrados (hora)
DESCASC
Temp. media en grados centígrados
DESCASC
Racha de viento máxima en m/sg (hora)
DESCASC
Velocidad máxima media en intervalos de 10 minutos(hora)
DESCASC
Precipitaciones diarias en mm
DESCASC
Precipitaciones de 00:00 a 06:00 en mm
DESCASC
Precipitaciones de 06:00 a 12:00 en mm
DESCASC
Precipitaciones de 12:00 a 18:00 en mm
DESCASC
Precipitaciones de 18:00 a 24:00 en mm
DESCASC
20-09-2020 27.1 (15:10) 14.2 (07:50) 20.7 10 (18:20) 6.67 (18:20) 0 0 0 0 0
19-09-2020 29.1 (15:00) 15.9 (02:40) 22.5 9.72 (14:00) 6.67 (14:00) 0.6 0.4 0.2 0 0
17-09-2020 32.8 (16:50) 20.8 (00:00) 26.8 8.89 (16:50) 5 (16:40) 0 0 0 0 0
16-09-2020 34.9 (17:10) 16.6 (07:50) 25.8 5.56 (22:00) 3.61 (22:00) 0 0 0 0 0
15-09-2020 33.8 (17:40) 19.1 (00:00) 26.4 9.44 (19:10) 6.11 (19:20) 0 0 0 0 0
14-09-2020 35.2 (16:20) 15.1 (00:00) 25.2 10 (18:50) 5.83 (18:50) 0 0 0 0 0
13-09-2020 36 (17:10) 14.5 (00:00) 25.3 7.78 (19:50) 4.44 (19:50) 0 0 0 0 0
12-09-2020 33.4 (18:10) 14.8 (07:50) 24.1 5.83 (12:00) 3.33 (11:10) 0 0 0 0 0
11-09-2020 31.4 (17:20) 16.7 (00:00) 24.1 10.28 (03:00) 6.11 (01:50) 0 0 0 0 0
10-09-2020 31.8 (17:50) 15.2 (00:00) 23.5 9.44 (20:30) 5.83 (20:00) 0 0 0 0 0
09-09-2020 30.1 (17:50) 14.3 (07:40) 22.2 7.22 (20:00) 4.17 (20:00) 0 0 0 0 0
08-09-2020 28.9 (17:50) 11.7 (00:00) 20.3 11.94 (02:00) 6.67 (00:20) 0 0 0 0 0
07-09-2020 26.5 (17:00) 16 (07:50) 21.3 21.39 (03:10) 12.78 (03:30) 0 0 0 0 0
06-09-2020 26.4 (15:00) 17.9 (00:00) 22.1 16.11 (22:10) 9.72 (22:20) 0 0 0 0 0
05-09-2020 33.5 (17:40) 15.4 (00:00) 24.4 12.5 (21:00) 7.22 (23:40) 0 0 0 0 0
04-09-2020 34.8 (17:40) 14.2 (00:00) 24.5 8.06 (20:10) 5 (20:00) 0 0 0 0 0
03-09-2020 32.7 (18:40) 10.3 (00:00) 21.5 5 (11:30) 2.78 (11:40) 0 0 0 0 0
02-09-2020 28.7 (17:50) 16.6 (00:00) 22.7 11.39 (09:50) 7.5 (09:40) 0 0 0 0 0
01-09-2020 28.4 (17:50) 11.9 (00:00) 20.1 7.22 (23:50) 4.44 (23:50) 0 0 0 0 0
31-08-2020 26.6 (18:50) 13.2 (00:00) 19.9 14.17 (01:00) 8.89 (00:50) 0 0 0 0 0
30-08-2020 23.4 (16:30) 14.7 (00:00) 19 18.61 (01:00) 11.94 (01:40) 0 0 0 0 0
29-08-2020 25.1 (16:50) 17.1 (00:00) 21.1 18.33 (19:00) 10.83 (19:20) 0 0 0 0 0
28-08-2020 31.1 (15:20) 19.5 (00:00) 25.3 16.67 (21:00) 10.28 (21:00) 0 0 0 0 0
27-08-2020 37.2 (18:40) 20.5 (00:00) 28.9 6.39 (11:50) 4.17 (11:30) 0 0 0 0 0
26-08-2020 37.2 (18:10) 20.1 (00:00) 28.7 8.06 (01:20) 5.56 (01:30) 0 0 0 0 0
25-08-2020 38.6 (18:10) 16.3 (00:00) 27.4 5 (20:30) 3.33 (20:20) 0 0 0 0 0
24-08-2020 32.3 (19:10) 18.2 (07:40) 25.3 10.28 (13:10) 6.67 (09:50) 0 0 0 0 0
23-08-2020 31.2 (18:30) 20 (00:00) 25.6 13.89 (00:10) 8.33 (09:40) 0 0 0 0 0

Gráficas

Temp. máximas Temp. mínimas Temp. medias Precipitaciones Rachas de viento máximas Velocidades máximas media en intervalos de 10 minutos

Datos horarios

Fecha y hora oficial Temperatura (ºC) Velocidad del viento (km/h) Dirección del viento Racha (km/h) Dirección de racha Precipitación (mm) Presión (hPa) Tendencia (hPa) Humedad (%)
2020-09-21 23:00:00 22.1 12 Oeste 19 Noroeste 0 -- -- 53
2020-09-21 22:00:00 22.5 9 Oeste 16 Oeste 0 -- -- 52
2020-09-21 21:00:00 23.7 8 Noroeste 20 Noroeste 0 -- -- 48
2020-09-21 20:00:00 24.2 8 Noroeste 23 Noroeste 0 -- -- 51
2020-09-21 19:00:00 25.6 15 Noroeste 27 Noroeste 0 -- -- 42
2020-09-21 18:00:00 26.3 18 Noroeste 31 Noroeste 0 -- -- 43
2020-09-21 17:00:00 26.6 17 Oeste 31 Oeste 0 -- -- 40
2020-09-21 16:00:00 26.5 19 Noroeste 35 Noroeste 0 -- -- 42
2020-09-21 15:00:00 26.4 18 Oeste 35 Oeste 0 -- -- 42
2020-09-21 14:00:00 25.2 19 Oeste 38 Oeste 0 -- -- 47
2020-09-21 13:00:00 24.5 19 Oeste 32 Oeste 0 -- -- 47
2020-09-21 12:00:00 23 22 Oeste 34 Oeste 0 -- -- 53
2020-09-21 11:00:00 22.1 17 Noroeste 27 Noroeste 0 -- -- 61
2020-09-21 10:00:00 19.3 2 Norte 5 Noroeste 0 -- -- 77
2020-09-21 09:00:00 16.7 3 Sudeste 8 Este 0 -- -- 85
2020-09-21 08:00:00 16 0 Calma 6 Sudoeste 0 -- -- 84
2020-09-21 07:00:00 15.6 4 Sudoeste 6 Sudoeste 0 -- -- 84
2020-09-21 06:00:00 15.1 0 Calma 4 Sudeste 0 -- -- 84
2020-09-21 05:00:00 15.3 0 Calma 6 Este 0 -- -- 84
2020-09-21 04:00:00 16 0 Calma 11 Sudoeste 0 -- -- 82
2020-09-21 03:00:00 16.4 7 Sudoeste 11 Sudoeste 0 -- -- 82
2020-09-21 02:00:00 17.2 5 Sudoeste 9 Sudoeste 0 -- -- 79
2020-09-21 01:00:00 18.7 5 Oeste 8 Oeste 0 -- -- 78
2020-09-21 00:00:00 19.9 4 Sudoeste 9 Noroeste 0 -- -- 75
2020-09-20 23:00:00 20.9 0 Calma 10 Sudoeste 0 -- -- 69
2020-09-20 22:00:00 21.5 6 Oeste 12 Oeste 0 -- -- 66
2020-09-20 21:00:00 22 5 Oeste 17 Noroeste 0 -- -- 65
2020-09-20 20:00:00 22.9 10 Noroeste 24 Noroeste 0 -- -- 59
2020-09-20 19:00:00 23.9 17 Noroeste 36 Noroeste 0 -- -- 58
2020-09-20 18:00:00 25.9 16 Noroeste 27 Noroeste 0 -- -- 49
2020-09-20 17:00:00 26.7 17 Oeste 28 Oeste 0 -- -- 48
2020-09-20 16:00:00 26.5 14 Noroeste 25 Noroeste 0 -- -- 49
2020-09-20 15:00:00 26.8 16 Noroeste 29 Noroeste 0 -- -- 48
2020-09-20 14:00:00 26.5 17 Noroeste 30 Oeste 0 -- -- 48
2020-09-20 13:00:00 26.1 17 Noroeste 28 Noroeste 0 -- -- 48
2020-09-20 12:00:00 23.5 11 Norte 20 Norte 0 -- -- 55
2020-09-20 11:00:00 21.7 2 Noroeste 8 Norte 0 -- -- 62
2020-09-20 10:00:00 18.8 3 Este 9 Este 0 -- -- 71
2020-09-20 09:00:00 14.7 2 Noroeste 5 Noroeste 0 -- -- 89
2020-09-20 08:00:00 14.3 0 Calma 9 Sur 0 -- -- 86
2020-09-20 07:00:00 14.7 0 Calma 7 Sudeste 0 -- -- 85
2020-09-20 06:00:00 15.1 6 Sudeste 8 Nordeste 0 -- -- 84
2020-09-20 05:00:00 16.1 2 Noroeste 8 Oeste 0 -- -- 80
2020-09-20 04:00:00 16.6 7 Oeste 13 Oeste 0 -- -- 77
2020-09-20 03:00:00 17.3 10 Sudoeste 13 Sudoeste 0 -- -- 73
2020-09-20 02:00:00 18.7 7 Oeste 9 Oeste 0 -- -- 68
2020-09-20 01:00:00 19.3 5 Sudoeste 8 Oeste 0 -- -- 67
2020-09-20 00:00:00 20 5 Oeste 12 Sudoeste 0 -- -- 66
2020-09-19 23:00:00 19.7 8 Sudoeste 13 Sudoeste 0 -- -- 66
2020-09-19 22:00:00 21 2 Noroeste 24 Noroeste 0 -- -- 65
2020-09-19 21:00:00 22.2 13 Noroeste 23 Noroeste 0 -- -- 60
2020-09-19 20:00:00 24.7 15 Oeste 32 Oeste 0 -- -- 46
2020-09-19 19:00:00 25.5 11 Noroeste 25 Oeste 0 -- -- 46
2020-09-19 18:00:00 26.5 13 Noroeste 24 Noroeste 0 -- -- 42
2020-09-19 17:00:00 26.4 14 Noroeste 28 Noroeste 0 -- -- 46
2020-09-19 16:00:00 26.9 19 Noroeste 30 Sudoeste 0 -- -- 40
2020-09-19 15:00:00 29.1 19 Oeste 32 Oeste 0 -- -- 35
2020-09-19 14:00:00 28.2 24 Sudoeste 35 Sudoeste 0 -- -- 37
2020-09-19 13:00:00 27.3 12 Sudoeste 30 Sudoeste 0 -- -- 39
2020-09-19 12:00:00 25.1 6 Norte 10 Norte 0 -- -- 54
2020-09-19 11:00:00 23.4 5 Nordeste 12 Este 0 -- -- 71
2020-09-19 10:00:00 21.2 9 Sudeste 14 Sudeste 0 -- -- 80
2020-09-19 09:00:00 17.2 5 Sudoeste 14 Sudoeste 0 -- -- 92
2020-09-19 08:00:00 16.6 5 Sur 13 Sudoeste 0 -- -- 92
2020-09-19 07:00:00 17.1 4 Nordeste 8 Oeste 0.2 -- -- 91
2020-09-19 06:00:00 17.1 6 Noroeste 13 Sudoeste 0.4 -- -- 90
2020-09-19 05:00:00 16.7 4 Oeste 13 Sudoeste 0 -- -- 89
2020-09-19 04:00:00 16.5 4 Sudoeste 8 Oeste 0 -- -- 91
2020-09-19 03:00:00 16.1 6 Oeste 9 Oeste 0 -- -- 89
2020-09-19 02:00:00 16.4 6 Sudoeste 10 Sudoeste 0 -- -- 87
2020-09-19 01:00:00 17 2 Norte 12 Sur 0 -- -- 86
2020-09-19 00:00:00 17.6 7 Sur 11 Este 0 -- -- 83
2020-09-18 23:00:00 18.3 3 Norte 57 Sudoeste 0.2 -- -- 83
2020-09-18 22:00:00 21 3 Oeste 11 Noroeste 0 -- -- 76
2020-09-18 21:00:00 21.4 5 Norte 14 Noroeste 0 -- -- 74
2020-09-18 20:00:00 22.4 4 Noroeste 7 Nordeste 0 -- -- 67
2020-09-18 19:00:00 23.1 4 Nordeste 14 Este 0 -- -- 66
2020-09-18 18:00:00 23 11 Sudoeste 30 Sudoeste 0 -- -- 64
2020-09-18 17:00:00 26.1 18 Este 41 Este 0 -- -- 58
2020-09-18 16:00:00 27.4 19 Este 36 Este 0 -- -- 52
2020-09-18 15:00:00 27.4 15 Este 27 Nordeste 0 -- -- 50
2020-09-18 14:00:00 27.1 18 Este 28 Este 0 -- -- 48
2020-09-18 13:00:00 26 15 Sudeste 28 Sudeste 0 -- -- 54
2020-09-18 12:00:00 24.4 14 Sudeste 25 Sudeste 0 -- -- 70
2020-09-18 11:00:00 22.3 11 Sudeste 23 Sudeste 0.8 -- -- 77
2020-09-18 10:00:00 23.1 9 Sudeste 16 Este 0 -- -- 69
2020-09-18 09:00:00 23 12 Este 21 Este 0 -- -- 68
2020-09-18 08:00:00 22.6 8 Sudeste 15 Sudeste 0 -- -- 65
2020-09-18 07:00:00 22.4 8 Este 21 Este 0 -- -- 68
2020-09-18 06:00:00 22.6 12 Este 19 Este 0 -- -- 67
2020-09-18 05:00:00 22.9 10 Este 18 Este 0 -- -- 66
2020-09-18 04:00:00 22.8 11 Este 17 Este 0 -- -- 66
2020-09-18 03:00:00 22.3 4 Norte 13 Este 0 -- -- 64
2020-09-18 02:00:00 22.8 6 Este 17 Este 0 -- -- 60
2020-09-18 01:00:00 23.1 3 Nordeste 9 Este 0 -- -- 60
2020-09-18 00:00:00 23.4 4 Nordeste 22 Sudeste 0 -- -- 61
2020-09-17 23:00:00 25.2 16 Sudeste 26 Sudeste 0 -- -- 57
2020-09-17 22:00:00 26 10 Este 25 Sudeste 0 -- -- 55
2020-09-17 21:00:00 27.4 13 Sudeste 27 Este 0 -- -- 50
2020-09-17 20:00:00 29.4 12 Este 23 Este 0 -- -- 38
2020-09-17 19:00:00 30.4 15 Este 30 Este 0 -- -- 39
2020-09-17 18:00:00 31.1 15 Este 29 Este 0 -- -- 33
2020-09-17 17:00:00 32.2 17 Este 32 Este 0 -- -- 32
2020-09-17 16:00:00 31.8 15 Este 29 Sudeste 0 -- -- 32
2020-09-17 15:00:00 29.6 8 Este 16 Sudeste 0 -- -- 44
2020-09-17 14:00:00 25.6 8 Sudeste 13 Sudeste 0 -- -- 59
2020-09-17 13:00:00 24.5 8 Sudeste 14 Este 0 -- -- 66
2020-09-17 12:00:00 24.2 8 Sudeste 12 Sudeste 0 -- -- 67
2020-09-17 11:00:00 22.8 2 Sur 7 Sudeste 0 -- -- 71
2020-09-17 10:00:00 21.8 4 Este 9 Sudeste 0 -- -- 76
2020-09-17 09:00:00 21.3 3 Este 13 Sur 0 -- -- 77
2020-09-17 08:00:00 21 7 Sudeste 10 Sudeste 0 -- -- 76
2020-09-17 07:00:00 21.2 5 Este 9 Sudeste 0 -- -- 75
2020-09-17 06:00:00 21.6 6 Este 10 Sudeste 0 -- -- 75
2020-09-17 05:00:00 21.5 0 Calma 4 Sudeste 0 -- -- 73
2020-09-17 04:00:00 22.1 2 Norte 8 Sudoeste 0 -- -- 72
2020-09-17 03:00:00 23.3 4 Sudeste 9 Este 0 -- -- 69
2020-09-17 02:00:00 24.2 8 Este 16 Este 0 -- -- 64
2020-09-17 01:00:00 24.7 9 Este 17 Este 0 -- -- 62
2020-09-17 00:00:00 25.6 8 Este 17 Este 0 -- -- 59
2020-09-16 23:00:00 26.2 6 Nordeste 17 Este 0 -- -- 54
2020-09-16 22:00:00 28.4 13 Sudeste 20 Sudeste 0 -- -- 47
2020-09-16 21:00:00 28.8 6 Este 14 Este 0 -- -- 38
2020-09-16 20:00:00 31.6 8 Sudeste 13 Sudeste 0 -- -- 31
2020-09-16 19:00:00 33.5 7 Sudeste 15 Sudeste 0 -- -- 31
2020-09-16 18:00:00 34.7 8 Sudeste 15 Sudeste 0 -- -- 31
2020-09-16 17:00:00 34.8 7 Este 14 Este 0 -- -- 29
2020-09-16 16:00:00 34.4 4 Este 15 Este 0 -- -- 34
2020-09-16 15:00:00 33.3 7 Sudeste 14 Este 0 -- -- 40
2020-09-16 14:00:00 31.6 6 Este 12 Sudeste 0 -- -- 44
2020-09-16 13:00:00 29.1 4 Sudeste 13 Sudeste 0 -- -- 53
2020-09-16 12:00:00 26.5 4 Norte 9 Norte 0 -- -- 63
2020-09-16 11:00:00 24 4 Nordeste 8 Nordeste 0 -- -- 67
2020-09-16 10:00:00 20.6 5 Noroeste 10 Noroeste 0 -- -- 71
2020-09-16 09:00:00 18.1 3 Noroeste 6 Sudoeste 0 -- -- 80
2020-09-16 08:00:00 16.7 3 Sur 6 Sur 0 -- -- 80
2020-09-16 07:00:00 17.1 4 Sudoeste 12 Sudoeste 0 -- -- 78
2020-09-16 06:00:00 17.6 4 Sudoeste 8 Sudoeste 0 -- -- 78
2020-09-16 05:00:00 18 3 Sur 8 Sudoeste 0 -- -- 74
2020-09-16 04:00:00 18.6 6 Sudoeste 9 Sudoeste 0 -- -- 74
2020-09-16 03:00:00 19.2 7 Sudoeste 10 Sudoeste 0 -- -- 72
2020-09-16 02:00:00 20.1 3 Sudoeste 6 Sudoeste 0 -- -- 69
2020-09-16 01:00:00 21.4 2 Sudoeste 7 Este 0 -- -- 65
2020-09-16 00:00:00 22.7 2 Este 5 Este 0 -- -- 60
2020-09-15 23:00:00 23.3 2 Oeste 9 Noroeste 0 -- -- 58
2020-09-15 22:00:00 24.6 4 Oeste 7 Noroeste 0 -- -- 56
2020-09-15 21:00:00 26.4 3 Este 18 Sudeste 0 -- -- 52
2020-09-15 20:00:00 27.6 15 Sur 34 Sur 0 -- -- 47
2020-09-15 19:00:00 32.1 5 Norte 13 Noroeste 0 -- -- 32
2020-09-15 18:00:00 32.9 3 Norte 11 Nordeste 0 -- -- 30
2020-09-15 17:00:00 33.5 5 Norte 14 Norte 0 -- -- 30
2020-09-15 16:00:00 33 8 Norte 16 Sudeste 0 -- -- 30
2020-09-15 15:00:00 33 4 Este 15 Este 0 -- -- 31
2020-09-15 14:00:00 31.4 5 Nordeste 14 Nordeste 0 -- -- 35
2020-09-15 13:00:00 28.7 6 Norte 13 Norte 0 -- -- 42
2020-09-15 12:00:00 27.2 6 Norte 12 Norte 0 -- -- 48
2020-09-15 11:00:00 24.9 5 Norte 9 Oeste 0 -- -- 58
2020-09-15 10:00:00 23 5 Norte 8 Norte 0 -- -- 68
2020-09-15 09:00:00 19.1 7 Sudoeste 10 Sudoeste 0 -- -- 81
2020-09-15 08:00:00 19.8 5 Sudeste 13 Sur 0 -- -- 78
2020-09-15 07:00:00 20.2 7 Sur 21 Sur 0 -- -- 78
2020-09-15 06:00:00 21.4 5 Este 21 Este 0 -- -- 71
2020-09-15 05:00:00 21.9 8 Nordeste 16 Este 0 -- -- 71
2020-09-15 04:00:00 22.3 6 Nordeste 11 Este 0 -- -- 68
2020-09-15 03:00:00 22.6 2 Nordeste 12 Este 0 -- -- 66
2020-09-15 02:00:00 22.8 3 Este 10 Este 0 -- -- 61
2020-09-15 01:00:00 23.1 2 Nordeste 9 Este 0 -- -- 58
2020-09-15 00:00:00 23.7 8 Este 15 Este 0 -- -- 55
2020-09-14 23:00:00 25.3 9 Este 19 Sudeste 0 -- -- 51
2020-09-14 22:00:00 26.2 10 Sudeste 22 Este 0 -- -- 47
2020-09-14 21:00:00 27.3 12 Este 23 Este 0 -- -- 43
2020-09-14 20:00:00 29.6 14 Este 33 Este 0 -- -- 39
2020-09-14 19:00:00 31.5 16 Este 36 Este 0 -- -- 36
2020-09-14 18:00:00 32.9 18 Este 31 Este 0 -- -- 28
2020-09-14 17:00:00 34.6 15 Este 30 Este 0 -- -- 25
2020-09-14 16:00:00 34.7 14 Este 25 Sudeste 0 -- -- 26
2020-09-14 15:00:00 33.3 11 Sudeste 26 Este 0 -- -- 27
2020-09-14 14:00:00 31.2 10 Sudeste 17 Sudeste 0 -- -- 32
2020-09-14 13:00:00 30.6 6 Sudeste 14 Sudeste 0 -- -- 36
2020-09-14 12:00:00 27.4 3 Norte 11 Este 0 -- -- 44
2020-09-14 11:00:00 24.8 5 Este 12 Este 0 -- -- 49
2020-09-14 10:00:00 21.5 3 Sudoeste 7 Sudoeste 0 -- -- 58
2020-09-14 09:00:00 16.5 0 Calma 3 Sudoeste 0 -- -- 71
2020-09-14 08:00:00 15.1 2 Sur 12 Sudoeste 0 -- -- 71
2020-09-14 07:00:00 15.3 7 Sur 10 Sur 0 -- -- 73
2020-09-14 06:00:00 16 8 Sudoeste 11 Sudoeste 0 -- -- 69
2020-09-14 05:00:00 16.8 6 Sudoeste 14 Sudoeste 0 -- -- 68
2020-09-14 04:00:00 17.2 5 Sudeste 11 Sudoeste 0 -- -- 65
2020-09-14 03:00:00 17.9 7 Sudoeste 10 Sudoeste 0 -- -- 62
2020-09-14 02:00:00 19.1 7 Sudoeste 9 Sudoeste 0 -- -- 58
2020-09-14 01:00:00 22 3 Sur 10 Nordeste 0 -- -- 50
2020-09-14 00:00:00 23.6 6 Este 9 Este 0 -- -- 46
2020-09-13 23:00:00 26.9 8 Este 19 Sudeste 0 -- -- 38
2020-09-13 22:00:00 28.1 12 Sudeste 18 Este 0 -- -- 34
2020-09-13 21:00:00 29.3 10 Este 24 Este 0 -- -- 31
2020-09-13 20:00:00 31.8 15 Este 28 Sudeste 0 -- -- 28
2020-09-13 19:00:00 35.2 8 Sudeste 15 Este 0 -- -- 18
2020-09-13 18:00:00 35.8 7 Este 15 Este 0 -- -- 18
2020-09-13 17:00:00 35.8 6 Este 22 Sudeste 0 -- -- 20
2020-09-13 16:00:00 35.2 14 Sudeste 22 Sudeste 0 -- -- 22
2020-09-13 15:00:00 34 6 Este 18 Sudeste 0 -- -- 27
2020-09-13 14:00:00 32.2 6 Este 15 Sudeste 0 -- -- 30
2020-09-13 13:00:00 29.6 4 Sudeste 11 Sudeste 0 -- -- 35
2020-09-13 12:00:00 27.1 7 Sudeste 10 Sudeste 0 -- -- 42
2020-09-13 11:00:00 23.1 3 Norte 9 Noroeste 0 -- -- 49
2020-09-13 10:00:00 19.7 5 Noroeste 9 Noroeste 0 -- -- 56
2020-09-13 09:00:00 16.3 3 Norte 5 Norte 0 -- -- 66
2020-09-13 08:00:00 14.7 3 Oeste 8 Sudoeste 0 -- -- 66
2020-09-13 07:00:00 14.9 5 Sudoeste 9 Oeste 0 -- -- 66
2020-09-13 06:00:00 15.8 4 Oeste 12 Sudoeste 0 -- -- 64
2020-09-13 05:00:00 16.6 0 Calma 5 Sudoeste 0 -- -- 64
2020-09-13 04:00:00 17 2 Oeste 5 Oeste 0 -- -- 62
2020-09-13 03:00:00 17.6 0 Calma 8 Sudoeste 0 -- -- 61
2020-09-13 02:00:00 19 5 Sudoeste 7 Sudoeste 0 -- -- 59
2020-09-13 01:00:00 20.6 2 Este 7 Oeste 0 -- -- 52
2020-09-13 00:00:00 21.9 6 Sudoeste 10 Sudoeste 0 -- -- 52
2020-09-12 23:00:00 24.1 2 Oeste 7 Norte 0 -- -- 48
2020-09-12 22:00:00 25.6 5 Nordeste 12 Este 0 -- -- 44
2020-09-12 21:00:00 27.3 5 Este 9 Este 0 -- -- 43
2020-09-12 20:00:00 31.5 4 Oeste 7 Oeste 0 -- -- 30
2020-09-12 19:00:00 32.6 5 Noroeste 11 Noroeste 0 -- -- 28
2020-09-12 18:00:00 33.3 4 Noroeste 11 Noroeste 0 -- -- 27
2020-09-12 17:00:00 32.7 5 Noroeste 11 Norte 0 -- -- 28
2020-09-12 16:00:00 31.6 5 Noroeste 12 Noroeste 0 -- -- 30
2020-09-12 15:00:00 30.4 7 Norte 14 Noroeste 0 -- -- 37
2020-09-12 14:00:00 28.7 8 Norte 19 Norte 0 -- -- 44
2020-09-12 13:00:00 27.2 9 Noroeste 20 Noroeste 0 -- -- 49
2020-09-12 12:00:00 25 12 Noroeste 21 Noroeste 0 -- -- 55
2020-09-12 11:00:00 22.9 12 Noroeste 20 Norte 0 -- -- 62
2020-09-12 10:00:00 19.6 5 Norte 9 Norte 0 -- -- 68
2020-09-12 09:00:00 16.2 0 Calma 3 Noroeste 0 -- -- 72
2020-09-12 08:00:00 14.8 3 Noroeste 5 Oeste 0 -- -- 77
2020-09-12 07:00:00 15.5 4 Norte 7 Oeste 0 -- -- 77
2020-09-12 06:00:00 16 5 Noroeste 13 Oeste 0 -- -- 74
2020-09-12 05:00:00 17.5 9 Oeste 15 Oeste 0 -- -- 70
2020-09-12 04:00:00 16.8 0 Calma 9 Sudoeste 0 -- -- 60
2020-09-12 03:00:00 17.1 3 Sur 8 Sudoeste 0 -- -- 59
2020-09-12 02:00:00 17.5 4 Sur 11 Sudoeste 0 -- -- 54
2020-09-12 01:00:00 18.6 10 Sudoeste 14 Sudoeste 0 -- -- 53
2020-09-12 00:00:00 19.6 6 Este 17 Este 0 -- -- 52
2020-09-11 23:00:00 20.8 6 Sudoeste 10 Sudoeste 0 -- -- 50
2020-09-11 22:00:00 22.3 8 Sudoeste 12 Sudoeste 0 -- -- 45
2020-09-11 21:00:00 25.7 6 Sudoeste 8 Sudoeste 0 -- -- 41
2020-09-11 20:00:00 29.6 4 Norte 6 Noroeste 0 -- -- 35
2020-09-11 19:00:00 31.1 3 Norte 9 Norte 0 -- -- 32
2020-09-11 18:00:00 31.3 5 Nordeste 11 Norte 0 -- -- 32
2020-09-11 17:00:00 31.3 4 Nordeste 15 Oeste 0 -- -- 31
2020-09-11 16:00:00 30.6 8 Noroeste 15 Noroeste 0 -- -- 32
2020-09-11 15:00:00 29.6 6 Noroeste 20 Oeste 0 -- -- 37
2020-09-11 14:00:00 28.4 9 Noroeste 22 Norte 0 -- -- 42
2020-09-11 13:00:00 26.9 15 Noroeste 28 Noroeste 0 -- -- 46
2020-09-11 12:00:00 25.5 16 Noroeste 26 Noroeste 0 -- -- 50
2020-09-11 11:00:00 23.6 13 Noroeste 19 Noroeste 0 -- -- 53
2020-09-11 10:00:00 20.8 9 Noroeste 16 Noroeste 0 -- -- 60
2020-09-11 09:00:00 17.9 9 Oeste 15 Noroeste 0 -- -- 68
2020-09-11 08:00:00 16.8 7 Oeste 13 Oeste 0 -- -- 72
2020-09-11 07:00:00 17.3 8 Oeste 13 Oeste 0 -- -- 70
2020-09-11 06:00:00 17.6 8 Oeste 16 Oeste 0 -- -- 68
2020-09-11 05:00:00 18.6 9 Oeste 17 Noroeste 0 -- -- 65
2020-09-11 04:00:00 20.1 8 Oeste 31 Oeste 0 -- -- 58
2020-09-11 03:00:00 21.2 19 Noroeste 37 Noroeste 0 -- -- 55
2020-09-11 02:00:00 21.7 22 Oeste 37 Oeste 0 -- -- 53
2020-09-11 01:00:00 22 14 Oeste 30 Noroeste 0 -- -- 52
2020-09-11 00:00:00 22.5 6 Sudeste 21 Noroeste 0 -- -- 47
2020-09-10 23:00:00 24.4 9 Oeste 24 Oeste 0 -- -- 41
2020-09-10 22:00:00 25.7 12 Oeste 23 Noroeste 0 -- -- 36
2020-09-10 21:00:00 27.6 15 Oeste 34 Oeste 0 -- -- 34
2020-09-10 20:00:00 29.7 21 Oeste 33 Oeste 0 -- -- 30
2020-09-10 19:00:00 31.8 11 Oeste 22 Noroeste 0 -- -- 27
2020-09-10 18:00:00 31.8 12 Noroeste 24 Noroeste 0 -- -- 29
2020-09-10 17:00:00 31.4 13 Noroeste 21 Noroeste 0 -- -- 29
2020-09-10 16:00:00 30.6 10 Norte 26 Noroeste 0 -- -- 32
2020-09-10 15:00:00 29.3 14 Noroeste 28 Norte 0 -- -- 36
2020-09-10 14:00:00 28.1 14 Noroeste 27 Noroeste 0 -- -- 38
2020-09-10 13:00:00 26.4 10 Oeste 19 Noroeste 0 -- -- 43
2020-09-10 12:00:00 23.7 6 Norte 12 Norte 0 -- -- 52
2020-09-10 11:00:00 21.1 5 Nordeste 9 Nordeste 0 -- -- 65
2020-09-10 10:00:00 17.7 3 Sudeste 10 Este 0 -- -- 81
2020-09-10 09:00:00 16.4 4 Este 8 Este 0 -- -- 88
2020-09-10 08:00:00 15.6 5 Este 8 Este 0 -- -- 90
2020-09-10 07:00:00 15.4 3 Sudeste 6 Este 0 -- -- 88
2020-09-10 06:00:00 15.9 0 Calma 5 Oeste 0 -- -- 88
2020-09-10 05:00:00 16 3 Oeste 12 Noroeste 0 -- -- 87
2020-09-10 04:00:00 16.3 4 Noroeste 7 Sudoeste 0 -- -- 87
2020-09-10 03:00:00 17.5 0 Calma 8 Noroeste 0 -- -- 83
2020-09-10 02:00:00 18.5 5 Norte 9 Norte 0 -- -- 80
2020-09-10 01:00:00 20.1 3 Este 8 Este 0 -- -- 75
2020-09-10 00:00:00 21.1 2 Nordeste 8 Sudeste 0 -- -- 71
2020-09-09 23:00:00 21.6 6 Este 11 Nordeste 0 -- -- 66
2020-09-09 22:00:00 23 10 Este 24 Este 0 -- -- 57
2020-09-09 21:00:00 24.3 13 Sudeste 22 Este 0 -- -- 54
2020-09-09 20:00:00 26.6 15 Sudeste 26 Sudeste 0 -- -- 41
2020-09-09 19:00:00 28.4 4 Este 10 Norte 0 -- -- 30
2020-09-09 18:00:00 29.9 6 Nordeste 13 Norte 0 -- -- 30
2020-09-09 17:00:00 28.8 6 Norte 13 Nordeste 0 -- -- 35
2020-09-09 16:00:00 28.3 9 Norte 14 Noroeste 0 -- -- 38
2020-09-09 15:00:00 28.5 7 Norte 15 Sudoeste 0 -- -- 39
2020-09-09 14:00:00 27.5 6 Oeste 15 Sur 0 -- -- 41
2020-09-09 13:00:00 26.2 5 Sudoeste 14 Sur 0 -- -- 44
2020-09-09 12:00:00 23.6 5 Oeste 12 Oeste 0 -- -- 50
2020-09-09 11:00:00 19.8 8 Noroeste 11 Norte 0 -- -- 58
2020-09-09 10:00:00 18.3 4 Norte 13 Oeste 0 -- -- 61
2020-09-09 09:00:00 16.2 5 Oeste 9 Oeste 0 -- -- 69
2020-09-09 08:00:00 14.7 0 Calma 6 Nordeste 0 -- -- 71
2020-09-09 07:00:00 14.8 3 Oeste 9 Sudoeste 0 -- -- 68
2020-09-09 06:00:00 15.1 6 Oeste 9 Sudoeste 0 -- -- 66
2020-09-09 05:00:00 16.2 0 Calma 8 Este 0 -- -- 62
2020-09-09 04:00:00 17.4 7 Sudoeste 9 Sudoeste 0 -- -- 59
2020-09-09 03:00:00 18.9 4 Oeste 8 Sudoeste 0 -- -- 57
2020-09-09 02:00:00 19.4 7 Sudoeste 11 Sudoeste 0 -- -- 56
2020-09-09 01:00:00 20.4 0 Calma 9 Nordeste 0 -- -- 51
2020-09-09 00:00:00 21.2 8 Este 15 Sudeste 0 -- -- 49
2020-09-08 23:00:00 21.5 6 Este 13 Este 0 -- -- 42
2020-09-08 22:00:00 23.4 5 Este 9 Este 0 -- -- 38
2020-09-08 21:00:00 25.5 3 Este 9 Sudeste 0 -- -- 32
2020-09-08 20:00:00 26.8 6 Sudeste 16 Sur 0 -- -- 28
2020-09-08 19:00:00 27.7 5 Sudeste 15 Sudeste 0 -- -- 27
2020-09-08 18:00:00 28.7 10 Sudeste 19 Sudeste 0 -- -- 26
2020-09-08 17:00:00 28.6 6 Sur 16 Sudeste 0 -- -- 25
2020-09-08 16:00:00 28.2 5 Sudeste 14 Este 0 -- -- 26
2020-09-08 15:00:00 26.9 5 Nordeste 16 Sudeste 0 -- -- 29
2020-09-08 14:00:00 25.8 5 Este 14 Nordeste 0 -- -- 33
2020-09-08 13:00:00 24.1 6 Norte 13 Noroeste 0 -- -- 37
2020-09-08 12:00:00 21.7 9 Noroeste 19 Noroeste 0 -- -- 42
2020-09-08 11:00:00 19.2 14 Noroeste 21 Noroeste 0 -- -- 53
2020-09-08 10:00:00 16.6 7 Norte 17 Noroeste 0 -- -- 64
2020-09-08 09:00:00 13.1 3 Norte 5 Norte 0 -- -- 74
2020-09-08 08:00:00 11.8 2 Este 6 Este 0 -- -- 75
2020-09-08 07:00:00 12.5 4 Este 10 Este 0 -- -- 73
2020-09-08 06:00:00 13.3 5 Este 20 Oeste 0 -- -- 74
2020-09-08 05:00:00 14.6 10 Noroeste 23 Noroeste 0 -- -- 68
2020-09-08 04:00:00 15.9 14 Noroeste 28 Noroeste 0 -- -- 62
2020-09-08 03:00:00 16.6 18 Noroeste 31 Noroeste 0 -- -- 59
2020-09-08 02:00:00 17 22 Noroeste 43 Noroeste 0 -- -- 57
2020-09-08 01:00:00 17.6 21 Noroeste 41 Noroeste 0 -- -- 54
2020-09-08 00:00:00 18.3 25 Noroeste 43 Noroeste 0 -- -- 51
2020-09-07 23:00:00 19 24 Oeste 43 Noroeste 0 -- -- 48
2020-09-07 22:00:00 19.8 25 Noroeste 46 Oeste 0 -- -- 45
2020-09-07 21:00:00 21.2 26 Oeste 48 Oeste 0 -- -- 40
2020-09-07 20:00:00 23.2 24 Oeste 48 Oeste 0 -- -- 34
2020-09-07 19:00:00 25.2 25 Oeste 42 Noroeste 0 -- -- 30
2020-09-07 18:00:00 26.3 23 Oeste 37 Oeste 0 -- -- 27
2020-09-07 17:00:00 26.5 19 Oeste 33 Oeste 0 -- -- 29
2020-09-07 16:00:00 26.3 18 Noroeste 37 Oeste 0 -- -- 30
2020-09-07 15:00:00 25.9 21 Noroeste 33 Noroeste 0 -- -- 32
2020-09-07 14:00:00 24.6 19 Noroeste 33 Noroeste 0 -- -- 34
2020-09-07 13:00:00 23.4 23 Noroeste 46 Noroeste 0 -- -- 36
2020-09-07 12:00:00 21.8 23 Noroeste 42 Noroeste 0 -- -- 40
2020-09-07 11:00:00 20.2 27 Noroeste 50 Noroeste 0 -- -- 46
2020-09-07 10:00:00 18.3 28 Noroeste 49 Oeste 0 -- -- 52
2020-09-07 09:00:00 16.9 31 Noroeste 47 Oeste 0 -- -- 56
2020-09-07 08:00:00 16 25 Oeste 43 Oeste 0 -- -- 58
2020-09-07 07:00:00 16.4 19 Oeste 37 Oeste 0 -- -- 56
2020-09-07 06:00:00 16.9 28 Noroeste 63 Oeste 0 -- -- 55
2020-09-07 05:00:00 17.2 36 Noroeste 68 Noroeste 0 -- -- 54
2020-09-07 04:00:00 17.4 41 Noroeste 77 Noroeste 0 -- -- 54
2020-09-07 03:00:00 17.5 41 Noroeste 66 Noroeste 0 -- -- 53
2020-09-07 02:00:00 18.2 39 Oeste 70 Oeste 0 -- -- 53
2020-09-07 01:00:00 18.6 31 Noroeste 53 Oeste 0 -- -- 52
2020-09-07 00:00:00 19 26 Noroeste 55 Noroeste 0 -- -- 50
2020-09-06 23:00:00 19.7 26 Noroeste 58 Oeste 0 -- -- 49
2020-09-06 22:00:00 21 29 Oeste 51 Noroeste 0 -- -- 46
2020-09-06 21:00:00 22.1 27 Oeste 48 Oeste 0 -- -- 42
2020-09-06 20:00:00 23.6 29 Noroeste 51 Noroeste 0 -- -- 38
2020-09-06 19:00:00 25.7 28 Oeste 43 Oeste 0 -- -- 35
2020-09-06 18:00:00 25.7 25 Oeste 42 Noroeste 0 -- -- 40
2020-09-06 17:00:00 26.2 27 Oeste 51 Oeste 0 -- -- 39
2020-09-06 16:00:00 26 26 Noroeste 44 Noroeste 0 -- -- 41
2020-09-06 15:00:00 26.4 25 Noroeste 42 Oeste 0 -- -- 41
2020-09-06 14:00:00 25.5 27 Oeste 45 Oeste 0 -- -- 43
2020-09-06 13:00:00 24.5 28 Oeste 43 Noroeste 0 -- -- 46
2020-09-06 12:00:00 23.8 25 Noroeste 45 Noroeste 0 -- -- 48
2020-09-06 11:00:00 22.5 25 Noroeste 46 Oeste 0 -- -- 51
2020-09-06 10:00:00 21 19 Noroeste 35 Noroeste 0 -- -- 56
2020-09-06 09:00:00 18.9 17 Oeste 28 Oeste 0 -- -- 65
2020-09-06 08:00:00 18.1 7 Oeste 16 Oeste 0 -- -- 68
2020-09-06 07:00:00 18 9 Noroeste 16 Norte 0 -- -- 68
2020-09-06 06:00:00 18.3 5 Noroeste 24 Oeste 0 -- -- 67
2020-09-06 05:00:00 19.1 12 Noroeste 33 Noroeste 0 -- -- 63
2020-09-06 04:00:00 19.4 16 Noroeste 35 Noroeste 0 -- -- 62
2020-09-06 03:00:00 19.8 15 Noroeste 30 Noroeste 0 -- -- 62
2020-09-06 02:00:00 20.5 18 Noroeste 35 Noroeste 0 -- -- 62
2020-09-06 01:00:00 21.5 22 Noroeste 44 Oeste 0 -- -- 59
2020-09-06 00:00:00 22.2 26 Oeste 44 Oeste 0 -- -- 57
2020-09-05 23:00:00 23.4 22 Oeste 44 Oeste 0 -- -- 53
2020-09-05 22:00:00 25 26 Oeste 44 Noroeste 0 -- -- 50
2020-09-05 21:00:00 26.9 23 Oeste 45 Oeste 0 -- -- 45
2020-09-05 20:00:00 29.9 21 Oeste 32 Oeste 0 -- -- 41
2020-09-05 19:00:00 32.4 13 Noroeste 21 Noroeste 0 -- -- 36
2020-09-05 18:00:00 33 11 Noroeste 17 Norte 0 -- -- 30
2020-09-05 17:00:00 33.2 8 Oeste 25 Noroeste 0 -- -- 32
2020-09-05 16:00:00 32 8 Noroeste 15 Noroeste 0 -- -- 33
2020-09-05 15:00:00 31.2 8 Noroeste 19 Noroeste 0 -- -- 35
2020-09-05 14:00:00 29.4 10 Noroeste 21 Norte 0 -- -- 41
2020-09-05 13:00:00 27.5 9 Noroeste 17 Oeste 0 -- -- 49
2020-09-05 12:00:00 25.7 6 Noroeste 14 Noroeste 0 -- -- 55
2020-09-05 11:00:00 23.9 3 Noroeste 8 Noroeste 0 -- -- 61
2020-09-05 10:00:00 20.6 6 Noroeste 9 Noroeste 0 -- -- 68
2020-09-05 09:00:00 17.6 3 Norte 5 Norte 0 -- -- 78
2020-09-05 08:00:00 15.4 6 Oeste 11 Sudoeste 0 -- -- 81
2020-09-05 07:00:00 15.5 10 Sudoeste 16 Sudoeste 0 -- -- 82
2020-09-05 06:00:00 16.2 9 Sudoeste 11 Sudoeste 0 -- -- 81
2020-09-05 05:00:00 16.8 3 Sudeste 8 Sudoeste 0 -- -- 78
2020-09-05 04:00:00 17.7 0 Calma 6 Nordeste 0 -- -- 76
2020-09-05 03:00:00 18.4 5 Sudoeste 8 Oeste 0 -- -- 73
2020-09-05 02:00:00 19.4 4 Oeste 8 Sudoeste 0 -- -- 70
2020-09-05 01:00:00 21.5 0 Calma 11 Este 0 -- -- 64
2020-09-05 00:00:00 23.2 4 Este 14 Este 0 -- -- 60
2020-09-04 23:00:00 24.7 6 Este 21 Este 0 -- -- 53
2020-09-04 22:00:00 26.9 12 Sudeste 21 Este 0 -- -- 43
2020-09-04 21:00:00 28.4 10 Sudeste 29 Sudeste 0 -- -- 43
2020-09-04 20:00:00 31.4 18 Sudeste 28 Sudeste 0 -- -- 37
2020-09-04 19:00:00 33.9 10 Sudeste 21 Este 0 -- -- 23
2020-09-04 18:00:00 34.7 10 Sudeste 17 Este 0 -- -- 19
2020-09-04 17:00:00 34.5 10 Nordeste 22 Este 0 -- -- 20
2020-09-04 16:00:00 33.8 12 Sudeste 23 Este 0 -- -- 22
2020-09-04 15:00:00 32.8 7 Sudeste 18 Sudeste 0 -- -- 30
2020-09-04 14:00:00 31 8 Nordeste 17 Este 0 -- -- 36
2020-09-04 13:00:00 28.8 7 Nordeste 16 Este 0 -- -- 44
2020-09-04 12:00:00 26.5 6 Sudeste 12 Este 0 -- -- 52
2020-09-04 11:00:00 23.8 5 Sudeste 10 Sudeste 0 -- -- 60
2020-09-04 10:00:00 20.8 0 Calma 6 Noroeste 0 -- -- 68
2020-09-04 09:00:00 16.6 2 Noroeste 5 Sudoeste 0 -- -- 78
2020-09-04 08:00:00 14.4 4 Sudoeste 10 Sudoeste 0 -- -- 81
2020-09-04 07:00:00 14.4 9 Sudoeste 15 Sudoeste 0 -- -- 79
2020-09-04 06:00:00 15.1 5 Sudoeste 12 Sudoeste 0 -- -- 77
2020-09-04 05:00:00 15.1 11 Sudoeste 17 Sudoeste 0 -- -- 75
2020-09-04 04:00:00 16.2 4 Sudoeste 10 Sudoeste 0 -- -- 75
2020-09-04 03:00:00 17.1 4 Sudoeste 8 Sudoeste 0 -- -- 73
2020-09-04 02:00:00 18.1 3 Oeste 11 Sudoeste 0 -- -- 68
2020-09-04 01:00:00 18.4 9 Sudoeste 12 Sudoeste 0 -- -- 62
2020-09-04 00:00:00 21.7 2 Sudeste 7 Nordeste 0 -- -- 54
2020-09-03 23:00:00 22.7 3 Nordeste 8 Este 0 -- -- 46
2020-09-03 22:00:00 24.9 4 Este 12 Este 0 -- -- 34
2020-09-03 21:00:00 27.2 5 Este 9 Nordeste 0 -- -- 30
2020-09-03 20:00:00 31.4 4 Sudoeste 10 Oeste 0 -- -- 23
2020-09-03 19:00:00 32.2 5 Noroeste 11 Sudoeste 0 -- -- 21
2020-09-03 18:00:00 32.3 4 Noroeste 9 Norte 0 -- -- 22
2020-09-03 17:00:00 31.5 3 Este 12 Nordeste 0 -- -- 24
2020-09-03 16:00:00 29.9 8 Norte 13 Este 0 -- -- 30
2020-09-03 15:00:00 28.8 6 Norte 15 Norte 0 -- -- 30
2020-09-03 14:00:00 27.5 6 Nordeste 13 Noroeste 0 -- -- 32
2020-09-03 13:00:00 25.3 6 Norte 14 Noroeste 0 -- -- 36
2020-09-03 12:00:00 22.3 10 Noroeste 18 Noroeste 0 -- -- 44
2020-09-03 11:00:00 19.1 8 Noroeste 13 Noroeste 0 -- -- 55
2020-09-03 10:00:00 16.1 4 Norte 7 Noroeste 0 -- -- 64
2020-09-03 09:00:00 12.6 0 Calma 4 Norte 0 -- -- 74
2020-09-03 08:00:00 10.3 0 Calma 10 Sudoeste 0 -- -- 74
2020-09-03 07:00:00 10.7 3 Sudoeste 10 Sudoeste 0 -- -- 77
2020-09-03 06:00:00 11.7 5 Sudoeste 6 Sudoeste 0 -- -- 73
2020-09-03 05:00:00 13.2 4 Noroeste 6 Noroeste 0 -- -- 70
2020-09-03 04:00:00 14.9 4 Noroeste 10 Oeste 0 -- -- 66
2020-09-03 03:00:00 14.9 2 Oeste 6 Sudoeste 0 -- -- 61
2020-09-03 02:00:00 16.7 5 Oeste 12 Oeste 0 -- -- 56
2020-09-03 01:00:00 16.7 7 Oeste 10 Sudoeste 0 -- -- 52
2020-09-03 00:00:00 18.6 7 Sudoeste 12 Sudoeste 0 -- -- 43
2020-09-02 23:00:00 19.6 5 Oeste 13 Oeste 0 -- -- 40
2020-09-02 22:00:00 21.7 4 Sur 22 Oeste 0 -- -- 35
2020-09-02 21:00:00 24.6 14 Oeste 22 Oeste 0 -- -- 27
2020-09-02 20:00:00 27.4 11 Noroeste 20 Noroeste 0 -- -- 27
2020-09-02 19:00:00 28.3 13 Noroeste 24 Noroeste 0 -- -- 27
2020-09-02 18:00:00 28.6 13 Noroeste 23 Noroeste 0 -- -- 27
2020-09-02 17:00:00 28.3 16 Noroeste 28 Noroeste 0 -- -- 28
2020-09-02 16:00:00 28 17 Oeste 32 Oeste 0 -- -- 30
2020-09-02 15:00:00 27.1 11 Noroeste 28 Noroeste 0 -- -- 34
2020-09-02 14:00:00 25.8 14 Noroeste 28 Oeste 0 -- -- 37
2020-09-02 13:00:00 24.8 17 Noroeste 31 Noroeste 0 -- -- 40
2020-09-02 12:00:00 22.9 19 Noroeste 32 Noroeste 0 -- -- 44
2020-09-02 11:00:00 21.2 20 Noroeste 36 Noroeste 0 -- -- 49
2020-09-02 10:00:00 19.8 25 Noroeste 41 Noroeste 0 -- -- 53
2020-09-02 09:00:00 18.7 14 Oeste 27 Oeste 0 -- -- 57
2020-09-02 08:00:00 16.8 12 Oeste 20 Oeste 0 -- -- 64
2020-09-02 07:00:00 17 3 Sur 27 Noroeste 0 -- -- 63
2020-09-02 06:00:00 17.3 9 Noroeste 30 Oeste 0 -- -- 63
2020-09-02 05:00:00 17.9 20 Oeste 32 Oeste 0 -- -- 60
2020-09-02 04:00:00 18.1 11 Oeste 18 Sudoeste 0 -- -- 60
2020-09-02 03:00:00 18.8 13 Oeste 30 Noroeste 0 -- -- 58
2020-09-02 02:00:00 19.4 12 Oeste 29 Noroeste 0 -- -- 57
2020-09-02 01:00:00 20.3 16 Oeste 37 Noroeste 0 -- -- 51
2020-09-02 00:00:00 21.7 16 Noroeste 26 Noroeste 0 -- -- 41
2020-09-01 23:00:00 21.5 6 Noroeste 12 Sudoeste 0 -- -- 38
2020-09-01 22:00:00 22.3 10 Sudoeste 15 Sudoeste 0 -- -- 35
2020-09-01 21:00:00 23.3 8 Sur 12 Sur 0 -- -- 30
2020-09-01 20:00:00 26.9 4 Este 8 Este 0 -- -- 26
2020-09-01 19:00:00 28 7 Este 17 Nordeste 0 -- -- 24
2020-09-01 18:00:00 28.4 5 Nordeste 14 Este 0 -- -- 24
2020-09-01 17:00:00 26.2 3 Noroeste 11 Noroeste 0 -- -- 27
2020-09-01 16:00:00 25.3 7 Noroeste 16 Noroeste 0 -- -- 30
2020-09-01 15:00:00 25 10 Noroeste 21 Noroeste 0 -- -- 31
2020-09-01 14:00:00 24.2 11 Norte 17 Noroeste 0 -- -- 34
2020-09-01 13:00:00 22.7 7 Norte 15 Noroeste 0 -- -- 43
2020-09-01 12:00:00 21.5 4 Norte 10 Norte 0 -- -- 45
2020-09-01 11:00:00 19.5 7 Noroeste 12 Noroeste 0 -- -- 48
2020-09-01 10:00:00 18.8 5 Este 9 Nordeste 0 -- -- 48
2020-09-01 09:00:00 14.3 3 Sur 5 Norte 0 -- -- 58
2020-09-01 08:00:00 13.1 2 Sur 6 Sur 0 -- -- 56
2020-09-01 07:00:00 12.1 4 Sudeste 9 Sudoeste 0 -- -- 59
2020-09-01 06:00:00 12.6 0 Calma 5 Sudoeste 0 -- -- 56
2020-09-01 05:00:00 13.3 3 Sudeste 9 Sudoeste 0 -- -- 51
2020-09-01 04:00:00 13.5 7 Sudoeste 9 Sudoeste 0 -- -- 47
2020-09-01 03:00:00 13.9 5 Noroeste 12 Noroeste 0 -- -- 47
2020-09-01 02:00:00 14.5 6 Noroeste 12 Noroeste 0 -- -- 45
2020-09-01 01:00:00 16.3 4 Oeste 9 Sudoeste 0 -- -- 38
2020-09-01 00:00:00 18.3 8 Oeste 13 Sur 0 -- -- 36
2020-08-31 23:00:00 19 9 Sudoeste 13 Sur 0 -- -- 35
2020-08-31 22:00:00 20 6 Sudoeste 13 Sudoeste 0 -- -- 34
2020-08-31 21:00:00 22.3 6 Sudoeste 9 Sudoeste 0 -- -- 29
2020-08-31 20:00:00 24.9 5 Noroeste 17 Noroeste 0 -- -- 28
2020-08-31 19:00:00 26.4 15 Noroeste 26 Noroeste 0 -- -- 23
2020-08-31 18:00:00 26.5 18 Noroeste 26 Norte 0 -- -- 21
2020-08-31 17:00:00 26.2 11 Norte 20 Noroeste 0 -- -- 26
2020-08-31 16:00:00 25.6 12 Norte 23 Norte 0 -- -- 30
2020-08-31 15:00:00 24.9 11 Noroeste 25 Noroeste 0 -- -- 33
2020-08-31 14:00:00 23.3 17 Noroeste 28 Noroeste 0 -- -- 36
2020-08-31 13:00:00 22.1 16 Noroeste 29 Oeste 0 -- -- 41
2020-08-31 12:00:00 20.7 17 Noroeste 30 Noroeste 0 -- -- 44
2020-08-31 11:00:00 18.9 18 Noroeste 31 Noroeste 0 -- -- 51
2020-08-31 10:00:00 17.6 19 Noroeste 28 Oeste 0 -- -- 56
2020-08-31 09:00:00 14.9 5 Noroeste 12 Oeste 0 -- -- 66
2020-08-31 08:00:00 13.2 3 Nordeste 16 Oeste 0 -- -- 72
2020-08-31 07:00:00 14 5 Oeste 18 Oeste 0 -- -- 67
2020-08-31 06:00:00 14.5 7 Noroeste 29 Noroeste 0 -- -- 66
2020-08-31 05:00:00 15.1 12 Noroeste 29 Oeste 0 -- -- 63
2020-08-31 04:00:00 15.3 13 Noroeste 36 Oeste 0 -- -- 61
2020-08-31 03:00:00 15.8 23 Oeste 39 Noroeste 0 -- -- 59
2020-08-31 02:00:00 16 23 Noroeste 45 Noroeste 0 -- -- 58
2020-08-31 01:00:00 16.5 30 Noroeste 51 Noroeste 0 -- -- 57
2020-08-31 00:00:00 17 26 Oeste 48 Oeste 0 -- -- 53
2020-08-30 23:00:00 17.8 30 Noroeste 48 Oeste 0 -- -- 51
2020-08-30 22:00:00 19.1 20 Noroeste 42 Noroeste 0 -- -- 48
2020-08-30 21:00:00 20.1 18 Noroeste 44 Noroeste 0 -- -- 43
2020-08-30 20:00:00 21.5 26 Noroeste 47 Oeste 0 -- -- 39
2020-08-30 19:00:00 22.6 29 Oeste 46 Oeste 0 -- -- 38
2020-08-30 18:00:00 23.3 26 Oeste 44 Noroeste 0 -- -- 38
2020-08-30 17:00:00 23.1 29 Oeste 45 Oeste 0 -- -- 39
2020-08-30 16:00:00 22.9 27 Noroeste 54 Oeste 0 -- -- 38
2020-08-30 15:00:00 22.9 28 Noroeste 52 Oeste 0 -- -- 39
2020-08-30 14:00:00 22.2 30 Noroeste 51 Oeste 0 -- -- 39
2020-08-30 13:00:00 21.1 30 Noroeste 49 Noroeste 0 -- -- 42
2020-08-30 12:00:00 20 30 Oeste 56 Oeste 0 -- -- 46
2020-08-30 11:00:00 18.8 34 Noroeste 59 Oeste 0 -- -- 48
2020-08-30 10:00:00 17.6 37 Noroeste 63 Noroeste 0 -- -- 52
2020-08-30 09:00:00 16.3 31 Oeste 53 Oeste 0 -- -- 55
2020-08-30 08:00:00 14.9 22 Oeste 49 Oeste 0 -- -- 61
2020-08-30 07:00:00 14.8 28 Noroeste 56 Oeste 0 -- -- 61
2020-08-30 06:00:00 15.1 31 Oeste 50 Oeste 0 -- -- 59
2020-08-30 05:00:00 15.3 26 Oeste 47 Oeste 0 -- -- 58
2020-08-30 04:00:00 15.5 28 Oeste 50 Oeste 0 -- -- 57
2020-08-30 03:00:00 15.6 32 Oeste 64 Noroeste 0 -- -- 58
2020-08-30 02:00:00 15.8 41 Oeste 67 Oeste 0 -- -- 63
2020-08-30 01:00:00 16.3 42 Oeste 67 Oeste 0 -- -- 63
2020-08-30 00:00:00 17.4 36 Oeste 63 Oeste 0 -- -- 60
2020-08-29 23:00:00 18.6 31 Oeste 51 Noroeste 0 -- -- 53
2020-08-29 22:00:00 19.1 21 Oeste 48 Noroeste 0 -- -- 52
2020-08-29 21:00:00 20.3 31 Noroeste 49 Oeste 0 -- -- 47
2020-08-29 20:00:00 21.7 35 Oeste 58 Oeste 0 -- -- 42
2020-08-29 19:00:00 24.2 33 Noroeste 66 Noroeste 0 -- -- 36
2020-08-29 18:00:00 24.8 32 Noroeste 50 Oeste 0 -- -- 33
2020-08-29 17:00:00 25.1 35 Oeste 55 Noroeste 0 -- -- 34
2020-08-29 16:00:00 25 28 Noroeste 53 Oeste 0 -- -- 34
2020-08-29 15:00:00 24.6 30 Oeste 53 Oeste 0 -- -- 36
2020-08-29 14:00:00 23.6 29 Noroeste 57 Oeste 0 -- -- 38
2020-08-29 13:00:00 22.6 31 Noroeste 51 Noroeste 0 -- -- 41
2020-08-29 12:00:00 21.8 28 Oeste 49 Oeste 0 -- -- 44
2020-08-29 11:00:00 20 28 Oeste 51 Oeste 0 -- -- 49
2020-08-29 10:00:00 18.8 28 Oeste 52 Noroeste 0 -- -- 54
2020-08-29 09:00:00 17.4 28 Noroeste 49 Oeste 0 -- -- 57
2020-08-29 08:00:00 17.3 35 Noroeste 63 Oeste 0 -- -- 57
2020-08-29 07:00:00 17.5 32 Oeste 54 Oeste 0 -- -- 57
2020-08-29 06:00:00 18 32 Oeste 52 Oeste 0 -- -- 54
2020-08-29 05:00:00 18.2 28 Oeste 50 Noroeste 0 -- -- 55
2020-08-29 04:00:00 18.4 28 Noroeste 53 Oeste 0 -- -- 55
2020-08-29 03:00:00 18.8 33 Noroeste 53 Noroeste 0 -- -- 55
2020-08-29 02:00:00 19 32 Noroeste 56 Noroeste 0 -- -- 53
2020-08-29 01:00:00 19.2 33 Noroeste 52 Oeste 0 -- -- 53
2020-08-29 00:00:00 19.5 33 Noroeste 53 Oeste 0 -- -- 56
2020-08-28 23:00:00 20.1 30 Oeste 53 Oeste 0 -- -- 55
2020-08-28 22:00:00 21 36 Noroeste 55 Noroeste 0 -- -- 53
2020-08-28 21:00:00 22.7 37 Noroeste 60 Oeste 0 -- -- 51
2020-08-28 20:00:00 24.6 30 Oeste 53 Oeste 0 -- -- 46
2020-08-28 19:00:00 26.7 32 Noroeste 51 Oeste 0 -- -- 44
2020-08-28 18:00:00 29.7 26 Oeste 44 Oeste 0 -- -- 41
2020-08-28 17:00:00 30.3 23 Noroeste 43 Oeste 0 -- -- 42
2020-08-28 16:00:00 30.3 23 Noroeste 41 Oeste 0 -- -- 44
2020-08-28 15:00:00 30.4 23 Noroeste 39 Noroeste 0 -- -- 47
2020-08-28 14:00:00 28.5 18 Noroeste 35 Noroeste 0 -- -- 52
2020-08-28 13:00:00 28.1 19 Noroeste 29 Noroeste 0 -- -- 52
2020-08-28 12:00:00 28 13 Noroeste 23 Noroeste 0 -- -- 53
2020-08-28 11:00:00 26.2 14 Noroeste 24 Noroeste 0 -- -- 57
2020-08-28 10:00:00 23 11 Noroeste 30 Noroeste 0 -- -- 68
2020-08-28 09:00:00 22.8 19 Noroeste 33 Oeste 0 -- -- 67
2020-08-28 08:00:00 22.9 18 Noroeste 33 Oeste 0 -- -- 67
2020-08-28 07:00:00 22.4 7 Oeste 21 Noroeste 0 -- -- 68
2020-08-28 06:00:00 22 16 Noroeste 29 Noroeste 0 -- -- 71
2020-08-28 05:00:00 22.2 7 Oeste 12 Oeste 0 -- -- 69
2020-08-28 04:00:00 22.7 0 Calma 14 Noroeste 0 -- -- 68
2020-08-28 03:00:00 23.8 9 Noroeste 31 Noroeste 0 -- -- 64
2020-08-28 02:00:00 24.8 18 Noroeste 37 Oeste 0 -- -- 61
2020-08-28 01:00:00 26.2 17 Noroeste 31 Noroeste 0 -- -- 57
2020-08-28 00:00:00 27.6 13 Oeste 22 Noroeste 0 -- -- 49
2020-08-27 23:00:00 27.8 8 Oeste 10 Oeste 0 -- -- 49
2020-08-27 22:00:00 30.5 4 Nordeste 12 Sudeste 0 -- -- 41
2020-08-27 21:00:00 32.7 5 Sudeste 10 Sur 0 -- -- 32
2020-08-27 20:00:00 36.3 7 Sur 10 Sudoeste 0 -- -- 27
2020-08-27 19:00:00 37 3 Nordeste 9 Este 0 -- -- 27
2020-08-27 18:00:00 36.8 4 Norte 12 Oeste 0 -- -- 30
2020-08-27 17:00:00 36.7 5 Norte 12 Norte 0 -- -- 31
2020-08-27 16:00:00 35.2 7 Noroeste 15 Norte 0 -- -- 35
2020-08-27 15:00:00 33.9 6 Noroeste 14 Norte 0 -- -- 44
2020-08-27 14:00:00 31.9 8 Noroeste 17 Norte 0 -- -- 47
2020-08-27 13:00:00 30.2 9 Norte 20 Norte 0 -- -- 51
2020-08-27 12:00:00 28.3 12 Noroeste 23 Noroeste 0 -- -- 55
2020-08-27 11:00:00 26.8 13 Noroeste 21 Noroeste 0 -- -- 56
2020-08-27 10:00:00 24.9 11 Noroeste 20 Oeste 0 -- -- 60
2020-08-27 09:00:00 23.1 11 Oeste 18 Oeste 0 -- -- 67
2020-08-27 08:00:00 20.6 2 Noroeste 12 Noroeste 0 -- -- 77
2020-08-27 07:00:00 20.8 0 Calma 6 Oeste 0 -- -- 75
2020-08-27 06:00:00 21.6 5 Noroeste 10 Noroeste 0 -- -- 72
2020-08-27 05:00:00 22.1 6 Norte 9 Noroeste 0 -- -- 69
2020-08-27 04:00:00 23 7 Noroeste 10 Noroeste 0 -- -- 65
2020-08-27 03:00:00 24.1 5 Noroeste 14 Norte 0 -- -- 63
2020-08-27 02:00:00 24.9 6 Noroeste 9 Noroeste 0 -- -- 60
2020-08-27 01:00:00 25.9 2 Noroeste 13 Sudoeste 0 -- -- 53
2020-08-27 00:00:00 27.5 9 Sudoeste 14 Sur 0 -- -- 47
2020-08-26 23:00:00 28.9 5 Sudeste 12 Este 0 -- -- 43
2020-08-26 22:00:00 29.3 5 Noroeste 10 Oeste 0 -- -- 43
2020-08-26 21:00:00 32.7 6 Oeste 9 Oeste 0 -- -- 35
2020-08-26 20:00:00 36.3 5 Oeste 10 Sudoeste 0 -- -- 25
2020-08-26 19:00:00 37 6 Sudoeste 13 Sur 0 -- -- 26
2020-08-26 18:00:00 36.9 7 Sur 14 Sur 0 -- -- 29
2020-08-26 17:00:00 35.4 7 Norte 12 Noroeste 0 -- -- 32
2020-08-26 16:00:00 34.2 6 Noroeste 10 Nordeste 0 -- -- 34
2020-08-26 15:00:00 33.2 5 Norte 12 Sudeste 0 -- -- 38
2020-08-26 14:00:00 31.7 5 Norte 13 Norte 0 -- -- 43
2020-08-26 13:00:00 29.7 7 Norte 15 Noroeste 0 -- -- 47
2020-08-26 12:00:00 28.2 10 Noroeste 20 Noroeste 0 -- -- 47
2020-08-26 11:00:00 26.2 13 Noroeste 21 Noroeste 0 -- -- 50
2020-08-26 10:00:00 24 10 Noroeste 18 Noroeste 0 -- -- 58
2020-08-26 09:00:00 21.8 5 Noroeste 10 Oeste 0 -- -- 64
2020-08-26 08:00:00 20.3 7 Oeste 11 Noroeste 0 -- -- 66
2020-08-26 07:00:00 20.4 4 Noroeste 8 Noroeste 0 -- -- 65
2020-08-26 06:00:00 21.1 3 Norte 8 Oeste 0 -- -- 62
2020-08-26 05:00:00 21.7 2 Norte 15 Noroeste 0 -- -- 60
2020-08-26 04:00:00 23 8 Oeste 13 Oeste 0 -- -- 52
2020-08-26 03:00:00 22.7 5 Noroeste 15 Noroeste 0 -- -- 55
2020-08-26 02:00:00 24.6 10 Noroeste 29 Noroeste 0 -- -- 49
2020-08-26 01:00:00 25.8 14 Noroeste 27 Noroeste 0 -- -- 49
2020-08-26 00:00:00 26.4 3 Sur 6 Sur 0 -- -- 48
2020-08-25 23:00:00 28.7 3 Norte 8 Noroeste 0 -- -- 42
2020-08-25 22:00:00 31.6 5 Este 16 Sudeste 0 -- -- 33
2020-08-25 21:00:00 34.3 11 Sudeste 18 Sudeste 0 -- -- 28
2020-08-25 20:00:00 37.4 4 Sudeste 12 Sudeste 0 -- -- 23
2020-08-25 19:00:00 38.3 4 Este 8 Nordeste 0 -- -- 22
2020-08-25 18:00:00 38.5 5 Sudoeste 10 Noroeste 0 -- -- 22
2020-08-25 17:00:00 36.9 5 Norte 10 Noroeste 0 -- -- 26
2020-08-25 16:00:00 35.6 8 Noroeste 13 Noroeste 0 -- -- 27
2020-08-25 15:00:00 34.2 6 Noroeste 14 Noroeste 0 -- -- 32
2020-08-25 14:00:00 32.6 5 Nordeste 12 Nordeste 0 -- -- 37
2020-08-25 13:00:00 30.5 4 Norte 9 Norte 0 -- -- 45
2020-08-25 12:00:00 27.6 5 Norte 12 Este 0 -- -- 57
2020-08-25 11:00:00 25.6 3 Noroeste 11 Noroeste 0 -- -- 60
2020-08-25 10:00:00 22.4 5 Norte 12 Noroeste 0 -- -- 52
2020-08-25 09:00:00 19.9 6 Noroeste 9 Noroeste 0 -- -- 58
2020-08-25 08:00:00 16.7 5 Oeste 7 Sudoeste 0 -- -- 70
2020-08-25 07:00:00 16.4 5 Oeste 9 Sudoeste 0 -- -- 71
2020-08-25 06:00:00 17.2 6 Sudoeste 8 Sudoeste 0 -- -- 69
2020-08-25 05:00:00 18.2 4 Oeste 6 Oeste 0 -- -- 68
2020-08-25 04:00:00 18.8 3 Oeste 7 Sur 0 -- -- 63
2020-08-25 03:00:00 19.5 4 Sudeste 8 Este 0 -- -- 61
2020-08-25 02:00:00 19.9 3 Sudoeste 8 Sudoeste 0 -- -- 59
2020-08-25 01:00:00 21 2 Oeste 9 Sudoeste 0 -- -- 55
2020-08-25 00:00:00 22.1 8 Sudoeste 11 Sudoeste 0 -- -- 52
2020-08-24 23:00:00 23.2 6 Noroeste 16 Noroeste 0 -- -- 52
2020-08-24 22:00:00 25.3 3 Sudeste 9 Sudoeste 0 -- -- 43
2020-08-24 21:00:00 28.8 7 Sur 10 Sur 0 -- -- 34
2020-08-24 20:00:00 31.8 4 Sudoeste 11 Sudoeste 0 -- -- 30
2020-08-24 19:00:00 32.2 8 Sudoeste 16 Noroeste 0 -- -- 28
2020-08-24 18:00:00 31.4 9 Noroeste 21 Noroeste 0 -- -- 31
2020-08-24 17:00:00 30.8 13 Noroeste 24 Norte 0 -- -- 33
2020-08-24 16:00:00 30 13 Noroeste 28 Noroeste 0 -- -- 35
2020-08-24 15:00:00 28.5 18 Noroeste 31 Noroeste 0 -- -- 38
2020-08-24 14:00:00 27.9 16 Noroeste 37 Oeste 0 -- -- 38
2020-08-24 13:00:00 26.3 17 Noroeste 35 Noroeste 0 -- -- 40
2020-08-24 12:00:00 24.5 18 Noroeste 33 Noroeste 0 -- -- 46
2020-08-24 11:00:00 22.5 23 Noroeste 36 Noroeste 0 -- -- 53
2020-08-24 10:00:00 21.5 23 Noroeste 36 Oeste 0 -- -- 55
2020-08-24 09:00:00 20.4 19 Noroeste 33 Noroeste 0 -- -- 59
2020-08-24 08:00:00 18.5 12 Oeste 28 Oeste 0 -- -- 65
2020-08-24 07:00:00 18.4 14 Oeste 25 Noroeste 0 -- -- 65
2020-08-24 06:00:00 18.6 11 Oeste 27 Oeste 0 -- -- 64
2020-08-24 05:00:00 19.1 16 Oeste 32 Oeste 0 -- -- 63
2020-08-24 04:00:00 19.4 18 Oeste 34 Oeste 0 -- -- 62
2020-08-24 03:00:00 19.8 15 Oeste 30 Oeste 0 -- -- 61
2020-08-24 02:00:00 20.6 15 Oeste 31 Oeste 0 -- -- 58
2020-08-24 01:00:00 21.4 18 Oeste 31 Oeste 0 -- -- 57
2020-08-24 00:00:00 22.4 18 Oeste 27 Oeste 0 -- -- 53
2020-08-23 23:00:00 23.6 10 Oeste 20 Sudoeste 0 -- -- 45
2020-08-23 22:00:00 25.2 12 Oeste 20 Oeste 0 -- -- 39
2020-08-23 21:00:00 26.9 14 Oeste 27 Oeste 0 -- -- 34
2020-08-23 20:00:00 29.8 15 Oeste 30 Noroeste 0 -- -- 28
2020-08-23 19:00:00 30.6 19 Noroeste 35 Noroeste 0 -- -- 26
2020-08-23 18:00:00 31 20 Noroeste 31 Noroeste 0 -- -- 25
2020-08-23 17:00:00 30.8 20 Noroeste 32 Noroeste 0 -- -- 29
2020-08-23 16:00:00 30.6 19 Noroeste 36 Noroeste 0 -- -- 31
2020-08-23 15:00:00 29.7 22 Noroeste 38 Noroeste 0 -- -- 31
2020-08-23 14:00:00 28.3 22 Noroeste 38 Noroeste 0 -- -- 34
2020-08-23 13:00:00 26.9 23 Noroeste 39 Noroeste 0 -- -- 36
2020-08-23 12:00:00 25.8 23 Noroeste 39 Noroeste 0 -- -- 40
2020-08-23 11:00:00 24.6 26 Oeste 46 Noroeste 0 -- -- 46
2020-08-23 10:00:00 23.1 29 Noroeste 46 Noroeste 0 -- -- 51
2020-08-23 09:00:00 21.8 26 Noroeste 44 Oeste 0 -- -- 56
2020-08-23 08:00:00 20.3 21 Oeste 36 Noroeste 0 -- -- 62
2020-08-23 07:00:00 20.1 14 Noroeste 32 Oeste 0 -- -- 63
2020-08-23 06:00:00 20.2 13 Noroeste 34 Noroeste 0 -- -- 62
2020-08-23 05:00:00 20.4 20 Noroeste 39 Oeste 0 -- -- 62
2020-08-23 04:00:00 20.8 21 Noroeste 43 Noroeste 0 -- -- 61
2020-08-23 03:00:00 21.1 15 Noroeste 39 Oeste 0 -- -- 60
2020-08-23 02:00:00 21.9 27 Noroeste 46 Noroeste 0 -- -- 59
2020-08-23 01:00:00 23.6 25 Noroeste 50 Oeste 0 -- -- 50
2020-08-23 00:00:00 25.3 24 Noroeste 41 Oeste 0 -- -- 44